LPHR/HOR METAR and TAF weather

Enter ICAO airport designator
Station Type Date Time Source
LPHR METAR 2022/12/04 11:30 UTC NOAA

LPHR 041130Z 06016KT 9999 FEW016 16/12 Q1008


Station Type Date Time Source
LPHR Decoded METAR 2022/12/04 11:30 UTC NOAA

Horta / Castelo Branco Acores , Portugal (LPHR) 38-31N 028-43W 41M
Dec 04, 2022 - 06:30 AM EST / 2022.12.04 1130 UTC
Wind: from the ENE (060 degrees) at 18 MPH (16 KT):0
Visibility: greater than 7 mile(s):0
Sky conditions: mostly clear
Temperature: 60 F (16 C)
Dew Point: 53 F (12 C)
Relative Humidity: 77%
Pressure (altimeter): 29.77 in. Hg (1008 hPa)
ob: LPHR 041130Z 06016KT 9999 FEW016 16/12 Q1008
cycle: 11

Station Type Date Time Source
LPHR TAF 2021/10/07 06:43 UTC NOAA

TAF LPHR 070630Z 0706/0724 33008KT 9999 FEW015 SCT030 PROB30
TEMPO 0706/0712 5000 SHRA SCT006 BKN012 FEW015CB

Example: see airport list